createdAt,value
2018-07-01T00:00:21.742Z,56.50
2018-07-01T00:02:50.277Z,56.50
2018-07-01T00:05:18.773Z,56.30
2018-07-01T00:07:47.329Z,56.30
2018-07-01T00:10:15.866Z,56.20
2018-07-01T00:12:44.385Z,56.00
2018-07-01T00:15:12.937Z,56.10
2018-07-01T00:17:41.413Z,56.00
2018-07-01T00:20:10.481Z,55.80
2018-07-01T00:22:39.648Z,55.40
2018-07-01T00:25:08.565Z,55.60
2018-07-01T00:27:37.093Z,55.30
2018-07-01T00:30:06.272Z,56.00
2018-07-01T00:32:34.928Z,55.30
2018-07-01T00:35:03.562Z,55.70
2018-07-01T00:37:32.112Z,56.00
2018-07-01T00:40:00.716Z,55.60
2018-07-01T00:42:29.212Z,55.50
2018-07-01T00:44:57.732Z,55.70
2018-07-01T00:47:26.229Z,55.80
2018-07-01T00:49:54.744Z,55.80
2018-07-01T00:52:23.271Z,55.50
2018-07-01T00:54:51.792Z,55.50
2018-07-01T00:57:20.344Z,55.40
2018-07-01T00:59:48.864Z,55.30
2018-07-01T01:02:17.297Z,55.50
2018-07-01T01:07:13.908Z,55.70
2018-07-01T01:09:42.399Z,55.30
2018-07-01T01:12:10.848Z,55.40
2018-07-01T01:14:39.321Z,55.20
2018-07-01T01:17:07.798Z,55.40
2018-07-01T01:19:36.277Z,55.40
2018-07-01T01:22:04.784Z,55.40
2018-07-01T01:24:33.258Z,55.10
2018-07-01T01:27:01.708Z,55.60
2018-07-01T01:29:30.191Z,55.40
2018-07-01T01:31:58.668Z,55.20
2018-07-01T01:34:27.188Z,55.10
2018-07-01T01:36:55.704Z,55.10
2018-07-01T01:39:27.175Z,55.00
2018-07-01T01:42:59.705Z,55.40
2018-07-01T01:45:37.999Z,55.10
2018-07-01T01:48:12.872Z,55.10
2018-07-01T01:50:49.567Z,55.00
2018-07-01T01:53:22.352Z,55.00
2018-07-01T01:55:56.104Z,55.60
2018-07-01T01:58:29.315Z,55.20
2018-07-01T02:01:03.117Z,55.40
2018-07-01T02:03:38.388Z,55.20
2018-07-01T02:06:19.668Z,55.40
2018-07-01T02:09:51.567Z,55.20
2018-07-01T02:12:20.112Z,55.00
2018-07-01T02:14:55.678Z,54.90
2018-07-01T02:17:31.012Z,54.90
2018-07-01T02:19:59.513Z,55.50
2018-07-01T02:22:40.508Z,54.90
2018-07-01T02:25:13.040Z,54.90
2018-07-01T02:27:41.604Z,54.70
2018-07-01T02:30:10.169Z,54.60
2018-07-01T02:32:38.630Z,54.70
2018-07-01T02:35:07.060Z,54.80
2018-07-01T02:37:35.528Z,54.70
2018-07-01T02:40:04.813Z,54.80
2018-07-01T02:42:33.344Z,55.30
2018-07-01T02:45:01.813Z,55.30
2018-07-01T02:47:30.314Z,55.00
2018-07-01T02:49:58.743Z,55.00
2018-07-01T02:52:27.211Z,54.90
2018-07-01T02:54:55.676Z,55.20
2018-07-01T02:57:24.143Z,55.20
2018-07-01T03:04:48.924Z,55.20
2018-07-01T03:07:17.394Z,55.30
2018-07-01T03:09:45.936Z,55.10
2018-07-01T03:12:14.396Z,55.20
2018-07-01T03:14:42.824Z,55.30
2018-07-01T03:17:11.292Z,55.20
2018-07-01T03:19:39.740Z,55.20
2018-07-01T03:22:08.255Z,55.40
2018-07-01T03:24:36.689Z,55.30
2018-07-01T03:27:05.328Z,55.20
2018-07-01T03:29:33.781Z,55.20
2018-07-01T03:32:02.240Z,55.20
2018-07-01T03:34:30.700Z,55.10
2018-07-01T03:36:59.128Z,55.10
2018-07-01T03:41:55.736Z,55.80
2018-07-01T03:44:24.187Z,56.00
2018-07-01T03:46:52.641Z,55.40
2018-07-01T03:49:21.104Z,55.30
2018-07-01T03:51:49.539Z,55.20
2018-07-01T03:54:17.996Z,55.20
2018-07-01T03:56:46.472Z,55.60
2018-07-01T03:59:14.963Z,55.80
2018-07-01T04:01:43.456Z,55.90
2018-07-01T04:04:11.928Z,56.20
2018-07-01T04:06:40.365Z,56.00
2018-07-01T04:09:11.073Z,55.80
2018-07-01T04:11:39.563Z,56.10
2018-07-01T04:14:08.249Z,56.30
2018-07-01T04:16:37.108Z,56.40
2018-07-01T04:19:05.831Z,56.20
2018-07-01T04:21:34.321Z,56.50
2018-07-01T04:24:02.821Z,56.20
2018-07-01T04:26:31.276Z,56.40
2018-07-01T04:28:59.732Z,56.30
2018-07-01T04:31:28.514Z,56.30
2018-07-01T04:33:56.973Z,56.70
2018-07-01T04:36:25.437Z,56.60
2018-07-01T04:38:59.497Z,56.80
2018-07-01T04:41:27.944Z,56.40
2018-07-01T04:43:56.412Z,56.70
2018-07-01T04:46:24.836Z,57.10
2018-07-01T04:48:53.291Z,56.80
2018-07-01T04:51:21.718Z,57.10
2018-07-01T04:53:50.168Z,57.00
2018-07-01T04:56:18.888Z,57.40
2018-07-01T04:58:47.386Z,57.30
2018-07-01T05:01:15.887Z,57.00
2018-07-01T05:03:44.382Z,56.90
2018-07-01T05:06:12.865Z,57.30
2018-07-01T05:08:41.398Z,57.20
2018-07-01T05:11:09.885Z,57.50
2018-07-01T05:13:38.664Z,57.40
2018-07-01T05:16:07.253Z,57.60
2018-07-01T05:18:35.865Z,57.70
2018-07-01T05:21:04.392Z,57.90
2018-07-01T05:26:01.092Z,57.70
2018-07-01T05:28:29.736Z,57.60
2018-07-01T05:33:26.497Z,57.70
2018-07-01T05:38:23.174Z,58.10
2018-07-01T05:40:51.669Z,57.90
2018-07-01T05:43:20.153Z,57.90
2018-07-01T05:45:48.928Z,58.10
2018-07-01T05:48:17.431Z,58.00
2018-07-01T05:50:45.969Z,58.30
2018-07-01T05:53:14.768Z,58.00
2018-07-01T05:55:43.271Z,58.10
2018-07-01T05:58:11.735Z,58.10
2018-07-01T06:00:40.336Z,58.30
2018-07-01T06:03:08.836Z,58.20
2018-07-01T06:05:37.537Z,59.00
2018-07-01T06:08:06.201Z,58.30
2018-07-01T06:10:34.721Z,58.40
2018-07-01T06:13:03.190Z,58.50
2018-07-01T06:15:31.672Z,58.30
2018-07-01T06:18:00.156Z,58.50
2018-07-01T06:20:29.105Z,58.80
2018-07-01T06:22:57.579Z,58.80
2018-07-01T06:25:26.378Z,56.80
2018-07-01T06:27:59.972Z,57.90
2018-07-01T06:30:28.634Z,57.90
2018-07-01T06:32:57.170Z,57.70
2018-07-01T06:35:25.650Z,57.70
2018-07-01T06:37:54.156Z,57.70
2018-07-01T06:40:22.672Z,57.60
2018-07-01T06:42:51.153Z,57.50
2018-07-01T06:45:19.663Z,57.40
2018-07-01T06:47:48.154Z,57.20
2018-07-01T06:50:16.672Z,57.50
2018-07-01T06:52:45.148Z,57.50
2018-07-01T06:55:13.651Z,57.60
2018-07-01T06:57:42.128Z,58.00
2018-07-01T07:00:11.427Z,57.50
2018-07-01T07:02:39.909Z,57.70
2018-07-01T07:05:08.396Z,57.10
2018-07-01T07:07:36.885Z,56.90
2018-07-01T07:10:07.731Z,57.30
2018-07-01T07:12:36.217Z,57.20
2018-07-01T07:15:04.808Z,57.40
2018-07-01T07:17:33.304Z,57.40
2018-07-01T07:20:01.762Z,57.40
2018-07-01T07:22:30.284Z,57.50
2018-07-01T07:24:58.768Z,57.50
2018-07-01T07:27:27.268Z,57.60
2018-07-01T07:29:55.732Z,57.50
2018-07-01T07:32:24.236Z,57.60
2018-07-01T07:34:52.716Z,57.50
2018-07-01T07:37:21.221Z,57.50
2018-07-01T07:42:18.914Z,57.70
2018-07-01T07:47:16.645Z,57.70
2018-07-01T07:49:45.140Z,57.80
2018-07-01T07:52:13.663Z,57.70
2018-07-01T07:54:42.548Z,57.70
2018-07-01T07:57:11.045Z,57.60
2018-07-01T07:59:39.560Z,57.70
2018-07-01T08:02:08.236Z,57.70
2018-07-01T08:04:36.897Z,57.80
2018-07-01T08:07:05.392Z,57.80
2018-07-01T08:09:33.896Z,57.60
2018-07-01T08:12:02.388Z,57.60
2018-07-01T08:14:30.915Z,57.80
2018-07-01T08:16:59.452Z,57.60
2018-07-01T08:19:33.845Z,57.70
2018-07-01T08:22:02.533Z,57.50
2018-07-01T08:24:31.056Z,57.70
2018-07-01T08:26:59.550Z,57.70
2018-07-01T08:29:28.009Z,57.70
2018-07-01T08:31:56.524Z,57.80
2018-07-01T08:34:25.246Z,57.70
2018-07-01T08:36:53.762Z,58.40
2018-07-01T08:39:22.294Z,57.90
2018-07-01T08:42:33.306Z,57.80
2018-07-01T08:45:03.080Z,58.00
2018-07-01T08:47:32.306Z,57.80
2018-07-01T08:50:00.813Z,57.90
2018-07-01T08:52:29.451Z,57.60
2018-07-01T08:54:57.941Z,57.80
2018-07-01T08:57:26.468Z,57.90
2018-07-01T08:59:54.977Z,57.80
2018-07-01T09:02:23.607Z,57.90
2018-07-01T09:04:52.297Z,58.00
2018-07-01T09:07:21.180Z,58.00
2018-07-01T09:09:50.356Z,58.00
2018-07-01T09:12:18.851Z,58.10
2018-07-01T09:14:47.352Z,58.10
2018-07-01T09:17:15.932Z,57.90
2018-07-01T09:19:44.400Z,57.90
2018-07-01T09:22:12.913Z,58.10
2018-07-01T09:24:41.392Z,57.90
2018-07-01T09:27:09.928Z,57.90
2018-07-01T09:29:43.832Z,57.90
2018-07-01T09:34:40.515Z,57.70
2018-07-01T09:37:09.040Z,57.70
2018-07-01T09:39:37.518Z,57.60
2018-07-01T09:42:06.384Z,57.40
2018-07-01T09:44:34.914Z,57.40
2018-07-01T09:47:03.460Z,57.30
2018-07-01T09:49:32.007Z,57.20
2018-07-01T09:52:00.537Z,57.30
2018-07-01T09:54:29.000Z,56.30
2018-07-01T09:56:57.512Z,55.90
2018-07-01T09:59:25.997Z,56.30
2018-07-01T10:01:54.468Z,55.60
2018-07-01T10:04:22.965Z,55.20
2018-07-01T10:06:51.446Z,54.80
2018-07-01T10:09:19.945Z,54.40
2018-07-01T10:11:48.424Z,54.20
2018-07-01T10:14:16.943Z,47.50
2018-07-01T10:16:45.453Z,45.60
2018-07-01T10:19:14.020Z,43.80
2018-07-01T10:21:42.533Z,42.40
2018-07-01T10:24:11.045Z,41.80
2018-07-01T10:26:39.591Z,41.50
2018-07-01T10:29:15.675Z,41.20
2018-07-01T10:31:46.281Z,41.20
2018-07-01T10:34:15.660Z,41.60
2018-07-01T10:36:44.330Z,41.20
2018-07-01T10:39:15.608Z,41.10
2018-07-01T10:41:44.088Z,41.10
2018-07-01T10:44:12.606Z,41.30
2018-07-01T10:46:41.112Z,41.40
2018-07-01T10:49:09.684Z,41.40
2018-07-01T10:51:38.217Z,41.40
2018-07-01T10:54:06.801Z,41.60
2018-07-01T10:56:35.306Z,41.40
2018-07-01T10:59:03.979Z,41.50
2018-07-01T11:01:35.112Z,41.60
2018-07-01T11:04:03.669Z,41.60
2018-07-01T11:06:32.180Z,41.40
2018-07-01T11:09:00.720Z,41.20
2018-07-01T11:11:29.220Z,41.60
2018-07-01T11:13:57.712Z,41.40
2018-07-01T11:16:26.208Z,41.30
2018-07-01T11:18:54.716Z,41.30
2018-07-01T11:21:23.239Z,41.30
2018-07-01T11:23:51.775Z,41.30
2018-07-01T11:26:20.248Z,41.60
2018-07-01T11:28:48.752Z,41.20
2018-07-01T11:31:17.251Z,41.20
2018-07-01T11:33:45.757Z,41.30
2018-07-01T11:36:14.229Z,41.40
2018-07-01T11:38:42.913Z,41.30
2018-07-01T11:41:11.405Z,41.20
2018-07-01T11:43:40.016Z,41.10
2018-07-01T11:46:08.484Z,41.20
2018-07-01T11:48:36.984Z,41.40
2018-07-01T11:51:05.517Z,41.30
2018-07-01T11:53:34.017Z,41.40
2018-07-01T11:56:02.504Z,42.10
2018-07-01T11:58:30.996Z,41.20
2018-07-01T12:00:59.516Z,41.10
2018-07-01T12:03:28.004Z,41.20
2018-07-01T12:05:56.473Z,41.50
2018-07-01T12:08:24.986Z,41.60
2018-07-01T12:10:53.704Z,41.50
2018-07-01T12:13:22.221Z,41.40
2018-07-01T12:15:50.718Z,41.20
2018-07-01T12:18:19.209Z,41.60
2018-07-01T12:20:47.720Z,41.10
2018-07-01T12:23:16.438Z,41.30
2018-07-01T12:25:44.941Z,41.20
2018-07-01T12:28:13.446Z,41.40
2018-07-01T12:30:41.965Z,41.30
2018-07-01T12:33:10.432Z,41.40
2018-07-01T12:35:38.968Z,41.30
2018-07-01T12:38:07.512Z,40.80
2018-07-01T12:40:36.017Z,40.70
2018-07-01T12:43:04.524Z,40.70
2018-07-01T12:45:33.129Z,40.40
2018-07-01T12:48:01.611Z,40.10
2018-07-01T12:50:30.153Z,40.40
2018-07-01T12:52:58.636Z,40.20
2018-07-01T12:55:27.131Z,40.20
2018-07-01T12:57:55.626Z,40.10
2018-07-01T13:00:24.132Z,40.00
2018-07-01T13:02:52.631Z,39.80
2018-07-01T13:05:21.136Z,40.00
2018-07-01T13:07:49.617Z,40.20
2018-07-01T13:10:18.248Z,40.30
2018-07-01T13:12:46.755Z,40.30
2018-07-01T13:15:15.280Z,40.00
2018-07-01T13:17:44.073Z,40.20
2018-07-01T13:20:12.657Z,40.00
2018-07-01T13:22:41.245Z,40.00
2018-07-01T13:25:09.755Z,40.00
2018-07-01T13:27:38.247Z,40.00
2018-07-01T13:30:06.811Z,40.00
2018-07-01T13:32:35.293Z,40.30
2018-07-01T13:35:03.873Z,40.10
2018-07-01T13:37:32.416Z,40.10
2018-07-01T13:40:00.935Z,39.90
2018-07-01T13:42:29.463Z,39.70
2018-07-01T13:44:58.077Z,39.60
2018-07-01T13:47:26.600Z,39.60
2018-07-01T13:49:55.146Z,39.70
2018-07-01T13:52:23.639Z,39.80
2018-07-01T13:54:52.148Z,39.40
2018-07-01T13:57:20.653Z,39.10
2018-07-01T14:02:17.381Z,39.70
2018-07-01T14:04:45.872Z,39.50
2018-07-01T14:07:16.010Z,39.80
2018-07-01T14:09:44.624Z,40.00
2018-07-01T14:12:13.076Z,40.10
2018-07-01T14:14:41.572Z,40.20
2018-07-01T14:17:10.989Z,40.40
2018-07-01T14:19:39.479Z,40.70
2018-07-01T14:22:08.007Z,40.70
2018-07-01T14:25:09.036Z,40.80
2018-07-01T14:27:37.665Z,40.80
2018-07-01T14:30:06.642Z,40.40
2018-07-01T14:32:35.264Z,40.90
2018-07-01T14:35:03.817Z,41.00
2018-07-01T14:37:32.528Z,40.40
2018-07-01T14:40:01.093Z,40.20
2018-07-01T14:42:29.561Z,40.40
2018-07-01T14:44:58.067Z,40.40
2018-07-01T14:47:26.552Z,40.40
2018-07-01T14:49:55.045Z,40.40
2018-07-01T14:52:23.657Z,40.50
2018-07-01T14:54:52.251Z,40.30
2018-07-01T14:57:20.724Z,40.70
2018-07-01T14:59:49.227Z,40.80
2018-07-01T15:02:17.776Z,40.80
2018-07-01T15:04:46.248Z,41.00
2018-07-01T15:07:14.751Z,41.10
2018-07-01T15:09:43.208Z,41.00
2018-07-01T15:12:11.716Z,40.90
2018-07-01T15:14:40.188Z,41.00
2018-07-01T15:17:08.796Z,41.10
2018-07-01T15:19:37.265Z,41.20
2018-07-01T15:22:05.770Z,41.20
2018-07-01T15:24:34.244Z,41.20
2018-07-01T15:27:02.740Z,41.30
2018-07-01T15:29:31.205Z,41.30
2018-07-01T15:31:59.708Z,41.30
2018-07-01T15:34:28.229Z,41.20
2018-07-01T15:36:56.716Z,41.10
2018-07-01T15:39:25.208Z,40.90
2018-07-01T15:41:53.793Z,40.90
2018-07-01T15:44:22.276Z,41.00
2018-07-01T15:46:50.770Z,41.10
2018-07-01T15:49:19.253Z,41.20
2018-07-01T15:51:47.756Z,41.10
2018-07-01T15:54:16.217Z,41.20
2018-07-01T15:56:44.704Z,41.10
2018-07-01T15:59:13.180Z,41.20
2018-07-01T16:01:41.677Z,41.20
2018-07-01T16:04:11.854Z,41.40
2018-07-01T16:06:40.362Z,41.40
2018-07-01T16:09:12.269Z,41.50
2018-07-01T16:11:41.440Z,41.50
2018-07-01T16:14:10.029Z,41.70
2018-07-01T16:16:38.902Z,41.90
2018-07-01T16:19:07.673Z,41.80
2018-07-01T16:21:36.168Z,41.80
2018-07-01T16:24:04.953Z,41.70
2018-07-01T16:26:38.653Z,41.80
2018-07-01T16:29:07.133Z,41.80
2018-07-01T16:31:35.656Z,41.80
2018-07-01T16:34:04.175Z,41.80
2018-07-01T16:36:32.673Z,41.80
2018-07-01T16:39:01.169Z,42.30
2018-07-01T16:41:29.874Z,41.80
2018-07-01T16:44:13.724Z,41.70
2018-07-01T16:46:42.255Z,41.50
2018-07-01T16:49:10.744Z,41.40
2018-07-01T16:51:39.245Z,41.30
2018-07-01T16:54:07.708Z,41.30
2018-07-01T16:56:36.189Z,41.20
2018-07-01T16:59:04.728Z,41.20
2018-07-01T17:01:33.196Z,41.20
2018-07-01T17:04:01.692Z,41.30
2018-07-01T17:06:30.160Z,41.50
2018-07-01T17:08:58.659Z,41.40
2018-07-01T17:11:27.112Z,41.50
2018-07-01T17:13:55.592Z,41.60
2018-07-01T17:16:24.060Z,41.70
2018-07-01T17:18:52.585Z,41.70
2018-07-01T17:21:21.052Z,41.70
2018-07-01T17:23:49.547Z,41.60
2018-07-01T17:26:17.995Z,41.70
2018-07-01T17:28:46.481Z,41.80
2018-07-01T17:31:20.291Z,41.70
2018-07-01T17:33:48.780Z,41.80
2018-07-01T17:36:17.261Z,41.90
2018-07-01T17:38:45.742Z,42.10
2018-07-01T17:41:14.233Z,42.10
2018-07-01T17:43:42.744Z,42.10
2018-07-01T17:46:11.223Z,42.10
2018-07-01T17:48:39.717Z,42.10
2018-07-01T17:51:08.481Z,42.10
2018-07-01T17:53:49.903Z,42.70
2018-07-01T17:56:18.388Z,42.20
2018-07-01T17:58:47.173Z,42.20
2018-07-01T18:01:15.625Z,42.40
2018-07-01T18:03:44.176Z,42.40
2018-07-01T18:06:12.636Z,42.40
2018-07-01T18:08:41.104Z,42.40
2018-07-01T18:11:09.617Z,42.50
2018-07-01T18:13:38.210Z,42.50
2018-07-01T18:16:07.224Z,42.50
2018-07-01T18:18:35.719Z,42.50
2018-07-01T18:21:04.168Z,42.40
2018-07-01T18:24:02.957Z,42.50
2018-07-01T18:26:01.724Z,42.50
2018-07-01T18:28:41.522Z,42.50
2018-07-01T18:30:59.620Z,42.60
2018-07-01T18:33:28.616Z,42.50
2018-07-01T18:35:57.133Z,42.40
2018-07-01T18:38:25.593Z,42.50
2018-07-01T18:40:54.240Z,42.30
2018-07-01T18:43:22.731Z,42.40
2018-07-01T18:45:51.200Z,42.40
2018-07-01T18:48:19.666Z,42.40
2018-07-01T18:50:48.125Z,42.40
2018-07-01T18:53:16.685Z,42.40
2018-07-01T18:55:45.124Z,42.50
2018-07-01T18:58:13.612Z,42.40
2018-07-01T19:03:10.277Z,42.50
2018-07-01T19:05:38.756Z,42.50
2018-07-01T19:08:07.356Z,42.50
2018-07-01T19:10:35.840Z,42.60
2018-07-01T19:13:04.316Z,42.60
2018-07-01T19:15:32.779Z,42.60
2018-07-01T19:18:01.284Z,42.70
2018-07-01T19:20:43.124Z,42.80
2018-07-01T19:23:26.908Z,42.80
2018-07-01T19:25:55.603Z,43.50
2018-07-01T19:28:25.791Z,43.00
2018-07-01T19:30:54.362Z,43.10
2018-07-01T19:33:22.898Z,42.90
2018-07-01T19:35:51.518Z,43.20
2018-07-01T19:38:20.094Z,43.20
2018-07-01T19:40:48.663Z,43.40
2018-07-01T19:43:17.266Z,43.50
2018-07-01T19:45:45.789Z,43.60
2018-07-01T19:48:14.323Z,43.60
2018-07-01T19:50:43.000Z,43.70
2018-07-01T19:53:11.584Z,43.80
2018-07-01T19:55:40.245Z,44.00
2018-07-01T19:58:08.788Z,44.00
2018-07-01T20:00:39.703Z,44.10
2018-07-01T20:03:08.226Z,44.10
2018-07-01T20:05:36.771Z,44.10
2018-07-01T20:08:06.291Z,44.90
2018-07-01T20:10:35.274Z,44.30
2018-07-01T20:13:04.346Z,44.40
2018-07-01T20:15:32.890Z,44.40
2018-07-01T20:18:01.406Z,44.50
2018-07-01T20:20:30.210Z,44.50
2018-07-01T20:22:58.794Z,44.50
2018-07-01T20:25:27.332Z,44.50
2018-07-01T20:27:55.856Z,44.50
2018-07-01T20:30:24.401Z,44.40
2018-07-01T20:32:52.916Z,44.40
2018-07-01T20:35:21.462Z,45.00
2018-07-01T20:40:18.240Z,44.40
2018-07-01T20:42:46.751Z,44.40
2018-07-01T20:45:15.351Z,44.40
2018-07-01T20:47:43.933Z,44.30
2018-07-01T20:50:12.556Z,45.10
2018-07-01T20:52:41.057Z,44.50
2018-07-01T20:55:09.656Z,45.40
2018-07-01T20:57:38.272Z,44.70
2018-07-01T21:00:07.059Z,44.70
2018-07-01T21:02:35.586Z,44.80
2018-07-01T21:05:04.242Z,44.90
2018-07-01T21:07:32.798Z,45.00
2018-07-01T21:10:01.359Z,44.90
2018-07-01T21:14:58.375Z,45.00
2018-07-01T21:17:27.330Z,44.90
2018-07-01T21:19:56.056Z,45.00
2018-07-01T21:22:24.661Z,45.00
2018-07-01T21:24:53.191Z,45.00
2018-07-01T21:27:21.809Z,44.90
2018-07-01T21:29:50.354Z,44.90
2018-07-01T21:32:18.909Z,44.90
2018-07-01T21:34:47.436Z,44.90
2018-07-01T21:37:16.048Z,44.80
2018-07-01T21:39:44.600Z,44.90
2018-07-01T21:42:13.403Z,44.90
2018-07-01T21:44:42.863Z,44.90
2018-07-01T21:47:11.464Z,45.00
2018-07-01T21:49:40.046Z,45.00
2018-07-01T21:52:08.623Z,45.00
2018-07-01T21:54:37.186Z,45.10
2018-07-01T21:57:05.877Z,45.10
2018-07-01T21:59:34.618Z,45.20
2018-07-01T22:02:03.281Z,45.20
2018-07-01T22:04:31.846Z,45.20
2018-07-01T22:07:01.190Z,45.20
2018-07-01T22:09:31.078Z,45.20
2018-07-01T22:12:10.842Z,45.20
2018-07-01T22:14:50.482Z,45.30
2018-07-01T22:17:19.067Z,45.30
2018-07-01T22:19:47.636Z,45.40
2018-07-01T22:22:16.312Z,45.50
2018-07-01T22:24:44.869Z,45.60
2018-07-01T22:27:13.452Z,45.70
2018-07-01T22:29:42.030Z,45.70
2018-07-01T22:32:10.638Z,45.70
2018-07-01T22:34:39.552Z,45.70
2018-07-01T22:37:08.199Z,45.70
2018-07-01T22:39:36.737Z,45.80
2018-07-01T22:42:05.383Z,45.80
2018-07-01T22:44:33.939Z,45.80
2018-07-01T22:47:02.521Z,45.80
2018-07-01T22:49:31.101Z,45.90
2018-07-01T22:51:59.732Z,45.80
2018-07-01T22:54:28.374Z,45.90
2018-07-01T22:56:56.943Z,45.90
2018-07-01T22:59:25.507Z,46.00
2018-07-01T23:03:04.764Z,46.10
2018-07-01T23:05:33.350Z,46.20
2018-07-01T23:08:02.244Z,46.30
2018-07-01T23:10:31.541Z,46.40
2018-07-01T23:13:00.554Z,46.30
2018-07-01T23:15:29.108Z,46.30
2018-07-01T23:17:57.671Z,46.40
2018-07-01T23:20:26.237Z,46.40
2018-07-01T23:22:54.929Z,46.60
2018-07-01T23:25:23.570Z,46.60
2018-07-01T23:27:52.163Z,46.50
2018-07-01T23:30:20.754Z,46.50
2018-07-01T23:32:49.304Z,46.00
2018-07-01T23:35:17.837Z,46.50
2018-07-01T23:37:46.582Z,46.50
2018-07-01T23:40:15.133Z,46.60
2018-07-01T23:42:43.949Z,46.50
2018-07-01T23:45:13.758Z,46.50
2018-07-01T23:47:42.620Z,46.50
2018-07-01T23:50:11.214Z,46.60
2018-07-01T23:52:39.769Z,46.40
2018-07-01T23:55:08.826Z,46.40
2018-07-01T23:57:37.409Z,46.30
